Time;durP1;ratioP1;P1;durP2;ratioP2;P2;SDS_P1;SDS_P2;PMS_P1;PMS_P2;Temp;Humidity;BMP_temperature;BMP_pressure;BME280_temperature;BME280_humidity;BME280_pressure;Samples;Min_cycle;Max_cycle;Signal;HPM_P1;HPM_P2
2023/11/27 00:00:04;;;;;;;;;;;;;;;18.91;57.01;100303.16;7391879;19;1866;-57
2023/11/27 00:02:33;;;;;;;;;;;;;;;18.96;56.66;100308.06;7393152;19;1434;-58
2023/11/27 00:05:01;;;;;;;;;;;;;;;18.93;56.65;100297.66;7395103;19;1403;-57
2023/11/27 00:07:30;;;;;;;;;;;;;;;18.96;56.37;100305.41;7393804;19;1557;-58
2023/11/27 00:09:58;;;;;;;;;;;;;;;18.95;56.61;100309.09;7393744;19;1438;-58
2023/11/27 00:12:26;;;;;;;;;;;;;;;18.95;56.32;100309.09;7393981;19;1472;-57
2023/11/27 00:14:57;;;;;;;;;;;;;;;18.94;56.50;100313.59;7395082;19;1417;-60
2023/11/27 00:17:26;;;;;;;;;;;;;;;18.96;56.44;100319.66;7391172;19;1426;-58
2023/11/27 00:19:54;;;;;;;;;;;;;;;18.93;56.40;100321.78;7392557;19;1862;-57
2023/11/27 00:22:23;;;;;;;;;;;;;;;18.88;56.49;100336.47;7391179;19;2696;-58
2023/11/27 00:24:51;;;;;;;;;;;;;;;18.90;56.75;100322.06;7391047;19;1520;-58
2023/11/27 00:27:21;;;;;;;;;;;;;;;18.88;56.47;100349.03;7393434;19;1424;-58
2023/11/27 00:29:49;;;;;;;;;;;;;;;18.89;56.66;100326.56;7393958;19;1350;-58
2023/11/27 00:32:20;;;;;;;;;;;;;;;18.83;56.78;100346.75;7392287;19;1343;-58
2023/11/27 00:34:48;;;;;;;;;;;;;;;18.83;56.79;100332.53;7394384;19;1129;-58
2023/11/27 00:37:18;;;;;;;;;;;;;;;18.88;56.82;100359.72;7392462;19;1536;-57
2023/11/27 00:39:46;;;;;;;;;;;;;;;18.87;56.48;100333.91;7393132;19;1861;-57
2023/11/27 00:42:14;;;;;;;;;;;;;;;18.86;56.60;100348.28;7392994;19;1908;-57
2023/11/27 00:44:43;;;;;;;;;;;;;;;18.87;56.64;100341.97;7391771;19;1592;-56
2023/11/27 00:47:11;;;;;;;;;;;;;;;18.84;56.56;100337.75;7391158;19;1529;-58
2023/11/27 00:49:42;;;;;;;;;;;;;;;18.82;56.59;100353.13;7392603;19;1473;-58
2023/11/27 00:52:10;;;;;;;;;;;;;;;18.84;56.42;100355.63;7393409;19;1533;-58
2023/11/27 00:54:38;;;;;;;;;;;;;;;18.81;56.81;100348.72;7393198;19;1355;-58
2023/11/27 00:57:07;;;;;;;;;;;;;;;18.78;56.64;100356.19;7391648;19;1708;-57
2023/11/27 00:59:40;;;;;;;;;;;;;;;18.80;56.54;100356.91;7391455;19;1836;-58
2023/11/27 01:02:09;;;;;;;;;;;;;;;18.80;56.54;100363.13;7391822;19;1442;-58
2023/11/27 01:04:42;;;;;;;;;;;;;;;18.79;56.67;100352.53;7393336;19;1517;-58
2023/11/27 01:07:10;;;;;;;;;;;;;;;18.80;56.56;100357.78;7391698;19;1450;-58
2023/11/27 01:09:39;;;;;;;;;;;;;;;18.78;56.55;100348.13;7393548;19;1260;-58
2023/11/27 01:12:08;;;;;;;;;;;;;;;18.58;56.41;100328.59;7393149;19;1366;-58
2023/11/27 01:14:36;;;;;;;;;;;;;;;18.78;56.46;100358.84;7392904;19;1797;-58
2023/11/27 01:17:05;;;;;;;;;;;;;;;18.79;56.38;100357.88;7386611;19;1487;-57
2023/11/27 01:19:33;;;;;;;;;;;;;;;18.77;56.58;100354.50;7390411;19;1865;-58
2023/11/27 01:22:04;;;;;;;;;;;;;;;18.79;56.13;100365.91;7391312;19;1228;-58
2023/11/27 01:24:32;;;;;;;;;;;;;;;18.79;56.29;100368.59;7390818;19;1212;-57
2023/11/27 01:27:01;;;;;;;;;;;;;;;18.81;56.19;100375.53;7390888;19;1263;-57
2023/11/27 01:29:29;;;;;;;;;;;;;;;18.83;56.19;100364.66;7392542;19;1434;-58
2023/11/27 01:31:57;;;;;;;;;;;;;;;18.79;56.28;100384.66;7390939;19;1897;-58
2023/11/27 01:34:26;;;;;;;;;;;;;;;18.47;56.21;100356.38;7391121;19;1497;-58
2023/11/27 01:36:54;;;;;;;;;;;;;;;18.80;56.44;100395.28;7391954;19;1426;-58
2023/11/27 01:39:25;;;;;;;;;;;;;;;18.74;56.26;100384.25;7390525;19;1839;-58
2023/11/27 01:41:53;;;;;;;;;;;;;;;18.72;56.21;100383.53;7391172;19;1377;-58
2023/11/27 01:44:22;;;;;;;;;;;;;;;18.71;56.31;100387.22;7391830;19;1727;-57
2023/11/27 01:46:51;;;;;;;;;;;;;;;18.75;56.13;100407.38;7389574;19;1446;-57
2023/11/27 01:49:21;;;;;;;;;;;;;;;18.76;56.12;100390.28;7388931;19;1474;-58
2023/11/27 01:51:50;;;;;;;;;;;;;;;18.78;55.97;100393.69;7390024;19;1418;-57
2023/11/27 01:54:19;;;;;;;;;;;;;;;18.77;56.16;100400.03;7388473;19;2574;-57
2023/11/27 01:56:52;;;;;;;;;;;;;;;18.53;56.33;100398.63;7391784;19;1354;-57
2023/11/27 01:59:20;;;;;;;;;;;;;;;18.71;56.11;100411.31;7391448;19;1847;-58
2023/11/27 02:01:49;;;;;;;;;;;;;;;18.68;56.02;100401.72;7391028;19;1884;-58
2023/11/27 02:04:18;;;;;;;;;;;;;;;18.69;55.97;100414.13;7390431;19;1441;-59
2023/11/27 02:06:46;;;;;;;;;;;;;;;18.69;56.02;100416.81;7389705;19;1288;-57
2023/11/27 02:09:15;;;;;;;;;;;;;;;18.67;56.11;100408.91;7388971;19;1432;-57
2023/11/27 02:11:46;;;;;;;;;;;;;;;18.64;56.01;100411.91;7389421;19;1158;-58
2023/11/27 02:14:17;;;;;;;;;;;;;;;18.68;55.89;100410.63;7390481;19;1297;-57
2023/11/27 02:16:46;;;;;;;;;;;;;;;18.67;55.82;100416.94;7388049;19;1399;-58
2023/11/27 02:19:16;;;;;;;;;;;;;;;18.63;55.89;100396.81;7388974;19;1869;-57
2023/11/27 02:21:45;;;;;;;;;;;;;;;18.65;55.83;100415.41;7387991;19;1388;-57
2023/11/27 02:24:16;;;;;;;;;;;;;;;18.72;55.81;100431.75;7390622;19;1380;-57
2023/11/27 02:26:44;;;;;;;;;;;;;;;19.25;54.83;100423.22;7389463;19;1334;-56
2023/11/27 02:29:13;;;;;;;;;;;;;;;20.12;53.60;100419.34;7388904;19;1455;-57
2023/11/27 02:31:41;;;;;;;;;;;;;;;20.70;52.14;100414.56;7389870;19;1398;-58
2023/11/27 02:34:09;;;;;;;;;;;;;;;21.24;51.04;100421.47;7389370;19;1335;-58
2023/11/27 02:36:39;;;;;;;;;;;;;;;21.39;50.87;100424.44;7389349;19;1398;-57
2023/11/27 02:39:08;;;;;;;;;;;;;;;21.24;51.05;100434.09;7387990;19;1466;-58
2023/11/27 02:41:40;;;;;;;;;;;;;;;21.24;51.17;100423.34;7387352;19;1866;-56
2023/11/27 02:44:09;;;;;;;;;;;;;;;21.35;51.18;100433.00;7390543;19;1204;-57
2023/11/27 02:46:38;;;;;;;;;;;;;;;21.36;51.23;100432.81;7388658;19;1410;-57
2023/11/27 02:49:06;;;;;;;;;;;;;;;21.41;51.18;100441.25;7387742;19;1113;-57
2023/11/27 02:51:40;;;;;;;;;;;;;;;21.45;51.02;100444.53;7389111;19;1519;-56
2023/11/27 02:54:08;;;;;;;;;;;;;;;21.45;50.70;100448.03;7389025;19;1358;-57
2023/11/27 02:56:36;;;;;;;;;;;;;;;21.51;50.71;100443.03;7389012;19;1367;-56
2023/11/27 02:59:08;;;;;;;;;;;;;;;21.45;51.09;100448.03;7390418;19;1446;-58
2023/11/27 03:01:36;;;;;;;;;;;;;;;21.61;50.79;100449.97;7394181;19;1862;-56
2023/11/27 03:04:05;;;;;;;;;;;;;;;21.57;50.73;100445.09;7396204;19;1928;-58
2023/11/27 03:06:33;;;;;;;;;;;;;;;21.64;50.59;100459.56;7397012;19;1455;-57
2023/11/27 03:09:01;;;;;;;;;;;;;;;21.64;50.64;100463.09;7396053;19;1250;-58
2023/11/27 03:11:29;;;;;;;;;;;;;;;21.68;50.54;100463.63;7395496;19;1411;-57
2023/11/27 03:13:58;;;;;;;;;;;;;;;21.69;50.39;100459.09;7396545;19;1265;-58
2023/11/27 03:16:29;;;;;;;;;;;;;;;21.70;50.44;100461.63;7393944;19;1477;-57
2023/11/27 03:18:58;;;;;;;;;;;;;;;21.75;50.49;100475.44;7395959;19;1164;-58
2023/11/27 03:21:26;;;;;;;;;;;;;;;21.79;50.32;100482.19;7394084;19;1865;-58
2023/11/27 03:23:54;;;;;;;;;;;;;;;21.79;50.47;100492.13;7395496;19;1434;-57
2023/11/27 03:26:22;;;;;;;;;;;;;;;21.88;50.32;100484.91;7396258;19;1468;-59
2023/11/27 03:28:51;;;;;;;;;;;;;;;21.88;50.21;100506.44;7395977;19;1684;-57
2023/11/27 03:31:19;;;;;;;;;;;;;;;21.96;50.18;100515.41;7389465;19;1476;-58
2023/11/27 03:33:51;;;;;;;;;;;;;;;21.85;50.22;100489.63;7392132;19;1458;-58
2023/11/27 03:36:19;;;;;;;;;;;;;;;21.94;50.23;100506.66;7394265;19;1433;-58
2023/11/27 03:38:47;;;;;;;;;;;;;;;21.96;50.08;100495.72;7395306;19;1472;-58
2023/11/27 03:41:19;;;;;;;;;;;;;;;21.93;50.17;100504.13;7391573;19;1845;-58
2023/11/27 03:43:47;;;;;;;;;;;;;;;21.98;50.42;100515.25;7394843;19;1191;-57
2023/11/27 03:46:16;;;;;;;;;;;;;;;22.00;50.26;100494.38;7394699;19;1591;-59
2023/11/27 03:48:44;;;;;;;;;;;;;;;22.05;50.14;100513.59;7391148;19;1383;-58
2023/11/27 03:51:16;;;;;;;;;;;;;;;22.05;50.01;100497.47;7395006;19;1448;-58
2023/11/27 03:53:44;;;;;;;;;;;;;;;22.04;50.18;100512.78;7394600;19;1450;-57
2023/11/27 03:56:12;;;;;;;;;;;;;;;21.51;50.91;100511.13;7395880;19;1433;-57
2023/11/27 03:58:40;;;;;;;;;;;;;;;20.85;52.08;100507.06;7395540;19;1548;-57
2023/11/27 04:01:11;;;;;;;;;;;;;;;20.52;52.77;100532.72;7391669;19;1856;-58
2023/11/27 04:03:39;;;;;;;;;;;;;;;20.09;54.28;100531.53;7394466;19;1524;-57
2023/11/27 04:06:08;;;;;;;;;;;;;;;19.86;55.46;100540.81;7391235;19;1461;-57
2023/11/27 04:08:41;;;;;;;;;;;;;;;19.73;55.67;100534.91;7394816;19;1450;-58
2023/11/27 04:11:13;;;;;;;;;;;;;;;19.67;56.07;100540.81;7393604;19;1520;-58
2023/11/27 04:13:41;;;;;;;;;;;;;;;19.62;56.20;100551.16;7394958;19;1357;-58
2023/11/27 04:16:11;;;;;;;;;;;;;;;19.54;56.38;100559.09;7394036;19;1536;-58
2023/11/27 04:18:40;;;;;;;;;;;;;;;19.45;56.86;100548.22;7393796;19;1782;-58
2023/11/27 04:21:08;;;;;;;;;;;;;;;19.39;56.96;100543.44;7392389;19;1892;-57
2023/11/27 04:23:36;;;;;;;;;;;;;;;19.30;56.99;100571.13;7393110;19;1462;-58
2023/11/27 04:26:08;;;;;;;;;;;;;;;19.24;57.39;100556.44;7393965;19;1327;-57
2023/11/27 04:28:37;;;;;;;;;;;;;;;19.22;57.44;100557.56;7393406;19;1700;-58
2023/11/27 04:31:05;;;;;;;;;;;;;;;19.17;57.78;100563.34;7392150;19;1433;-58
2023/11/27 04:33:34;;;;;;;;;;;;;;;19.10;58.20;100596.22;7378591;19;1479;-57
2023/11/27 04:36:02;;;;;;;;;;;;;;;19.06;58.54;100574.22;7392801;19;1442;-58
2023/11/27 04:38:31;;;;;;;;;;;;;;;19.01;58.60;100568.44;7392675;19;1509;-58
2023/11/27 04:40:59;;;;;;;;;;;;;;;18.99;58.80;100568.56;7392219;19;1865;-58
2023/11/27 04:43:30;;;;;;;;;;;;;;;18.89;58.78;100570.38;7393759;19;1447;-57
2023/11/27 04:45:58;;;;;;;;;;;;;;;18.92;59.02;100577.28;7390533;19;1516;-58
2023/11/27 04:48:26;;;;;;;;;;;;;;;18.92;59.22;100594.25;7393160;19;1466;-57
2023/11/27 04:50:55;;;;;;;;;;;;;;;18.91;59.13;100605.94;7391352;19;2113;-58
2023/11/27 04:53:23;;;;;;;;;;;;;;;18.97;59.10;100602.69;7392164;19;1544;-58
2023/11/27 04:55:51;;;;;;;;;;;;;;;18.90;59.13;100598.91;7391353;19;1411;-57
2023/11/27 04:58:20;;;;;;;;;;;;;;;18.69;58.98;100610.50;7391879;19;1493;-57
2023/11/27 05:00:51;;;;;;;;;;;;;;;18.65;59.19;100609.09;7389382;19;1857;-57
2023/11/27 05:03:20;;;;;;;;;;;;;;;18.68;59.24;100607.97;7392699;19;1672;-58
2023/11/27 05:05:48;;;;;;;;;;;;;;;18.65;59.19;100622.47;7393473;19;1515;-57
2023/11/27 05:08:17;;;;;;;;;;;;;;;18.62;59.23;100625.44;7392686;19;1691;-58
2023/11/27 05:10:45;;;;;;;;;;;;;;;18.27;59.29;100601.78;7391565;19;1600;-58
2023/11/27 05:13:13;;;;;;;;;;;;;;;18.54;59.18;100632.44;7391552;19;1409;-58
2023/11/27 05:15:42;;;;;;;;;;;;;;;18.51;59.37;100638.94;7393694;19;1588;-58
2023/11/27 05:18:13;;;;;;;;;;;;;;;18.47;59.40;100630.31;7393898;19;1067;-58
2023/11/27 05:20:42;;;;;;;;;;;;;;;18.40;59.49;100626.50;7391293;19;1861;-58
2023/11/27 05:23:10;;;;;;;;;;;;;;;18.40;59.87;100636.34;7391727;19;1503;-58
2023/11/27 05:25:38;;;;;;;;;;;;;;;18.39;59.34;100650.72;7394531;19;1588;-58
2023/11/27 05:28:07;;;;;;;;;;;;;;;18.38;59.55;100643.66;7391645;19;2616;-57
2023/11/27 05:30:35;;;;;;;;;;;;;;;18.36;59.26;100634.91;7392334;19;1243;-57
2023/11/27 05:33:04;;;;;;;;;;;;;;;18.37;59.22;100650.00;7379575;19;1568;-58
2023/11/27 05:35:34;;;;;;;;;;;;;;;18.33;59.58;100657.47;7392723;19;1632;-57
2023/11/27 05:38:03;;;;;;;;;;;;;;;18.31;59.26;100666.59;7391933;19;1486;-58
2023/11/27 05:40:32;;;;;;;;;;;;;;;18.26;59.60;100670.53;7390160;19;1850;-57
2023/11/27 05:43:05;;;;;;;;;;;;;;;18.22;59.77;100669.09;7390693;19;1985;-58
2023/11/27 05:45:34;;;;;;;;;;;;;;;18.23;59.88;100670.78;7392465;19;1260;-58
2023/11/27 05:48:05;;;;;;;;;;;;;;;18.19;60.18;100672.03;7388838;19;1811;-58
2023/11/27 05:50:41;;;;;;;;;;;;;;;18.21;59.58;100663.88;7389034;19;1544;-61
2023/11/27 05:53:09;;;;;;;;;;;;;;;18.25;59.41;100662.63;7391282;19;1854;-58
2023/11/27 05:55:37;;;;;;;;;;;;;;;18.85;57.95;100678.81;7387750;19;1862;-57
2023/11/27 05:58:06;;;;;;;;;;;;;;;19.41;56.88;100686.25;7343125;19;13683;-55
2023/11/27 06:00:34;;;;;;;;;;;;;;;20.00;55.42;100670.16;7380832;19;1855;-55
2023/11/27 06:03:03;;;;;;;;;;;;;;;20.17;55.04;100671.25;7381956;19;1494;-57
2023/11/27 06:05:31;;;;;;;;;;;;;;;19.62;56.28;100679.94;7391587;19;1540;-58
2023/11/27 06:08:03;;;;;;;;;;;;;;;19.41;56.73;100683.56;7390540;19;1236;-57
2023/11/27 06:10:31;;;;;;;;;;;;;;;19.90;55.44;100675.56;7391579;19;1098;-58
2023/11/27 06:13:00;;;;;;;;;;;;;;;20.22;54.57;100668.97;7382695;19;1283;-60
2023/11/27 06:15:28;;;;;;;;;;;;;;;20.57;53.48;100667.41;7381433;19;1061;-59
2023/11/27 06:17:56;;;;;;;;;;;;;;;20.66;53.02;100678.16;7385126;19;1404;-59
2023/11/27 06:20:25;;;;;;;;;;;;;;;20.65;53.16;100676.47;7388624;19;1294;-59
2023/11/27 06:22:57;;;;;;;;;;;;;;;20.56;53.46;100679.19;7387368;19;1845;-59
2023/11/27 06:25:28;;;;;;;;;;;;;;;20.58;53.40;100691.47;7386453;19;1730;-58
2023/11/27 06:27:56;;;;;;;;;;;;;;;20.37;53.71;100683.63;7388835;19;1570;-59
2023/11/27 06:30:24;;;;;;;;;;;;;;;20.40;54.05;100694.06;7389472;19;1140;-60
2023/11/27 06:32:53;;;;;;;;;;;;;;;20.36;54.00;100698.03;7376577;19;1588;-59
2023/11/27 06:35:21;;;;;;;;;;;;;;;20.36;53.61;100697.22;7394946;19;1350;-58
2023/11/27 06:37:49;;;;;;;;;;;;;;;20.36;53.50;100694.53;7394892;19;1480;-58
2023/11/27 06:40:20;;;;;;;;;;;;;;;20.28;53.40;100695.25;7396860;19;1166;-58
2023/11/27 06:42:50;;;;;;;;;;;;;;;20.00;53.41;100644.16;7395188;19;1871;-57
2023/11/27 06:45:19;;;;;;;;;;;;;;;20.31;53.28;100692.25;7397540;19;1901;-59
2023/11/27 06:47:48;;;;;;;;;;;;;;;20.35;53.38;100704.44;7396955;19;1347;-58
2023/11/27 06:50:17;;;;;;;;;;;;;;;20.35;53.31;100703.56;7396941;19;1805;-58
2023/11/27 06:52:45;;;;;;;;;;;;;;;20.38;53.28;100700.59;7396591;19;1645;-58
2023/11/27 06:55:13;;;;;;;;;;;;;;;20.39;53.26;100707.63;7396046;19;1436;-58
2023/11/27 06:57:42;;;;;;;;;;;;;;;20.39;53.15;100694.22;7396257;19;1441;-57
2023/11/27 07:00:15;;;;;;;;;;;;;;;20.39;53.29;100707.63;7396208;19;1583;-59
2023/11/27 07:02:44;;;;;;;;;;;;;;;20.35;54.12;100711.59;7390145;19;1876;-58
2023/11/27 07:05:13;;;;;;;;;;;;;;;20.41;53.95;100713.72;7395200;19;1368;-58
2023/11/27 07:07:41;;;;;;;;;;;;;;;20.33;54.11;100708.22;7395097;19;1240;-58
2023/11/27 07:10:13;;;;;;;;;;;;;;;20.39;54.59;100713.00;7396835;19;1582;-57
2023/11/27 07:12:41;;;;;;;;;;;;;;;20.46;55.24;100711.44;7393244;19;1589;-59
2023/11/27 07:15:12;;;;;;;;;;;;;;;20.46;56.09;100698.00;7393205;19;1246;-59
2023/11/27 07:17:44;;;;;;;;;;;;;;;20.51;56.06;100722.59;7389161;19;1794;-57
2023/11/27 07:20:17;;;;;;;;;;;;;;;20.60;55.91;100710.16;7392659;19;1632;-59
2023/11/27 07:22:46;;;;;;;;;;;;;;;20.53;56.63;100707.19;7394289;19;1861;-58
2023/11/27 07:25:15;;;;;;;;;;;;;;;20.75;56.54;100703.31;7393245;19;1517;-58
2023/11/27 07:27:45;;;;;;;;;;;;;;;20.92;56.92;100708.88;7396166;19;1331;-59
2023/11/27 07:30:14;;;;;;;;;;;;;;;20.89;57.61;100704.66;7396139;19;1183;-58
2023/11/27 07:32:45;;;;;;;;;;;;;;;21.05;57.73;100704.00;7378644;19;1392;-58
2023/11/27 07:35:13;;;;;;;;;;;;;;;21.02;58.04;100705.13;7396336;19;1604;-59
2023/11/27 07:37:42;;;;;;;;;;;;;;;21.06;58.06;100694.94;7394712;19;1393;-58
2023/11/27 07:40:14;;;;;;;;;;;;;;;21.05;58.27;100720.13;7396339;19;1300;-59
2023/11/27 07:42:43;;;;;;;;;;;;;;;20.98;58.29;100705.59;7393410;19;1844;-56
2023/11/27 07:45:11;;;;;;;;;;;;;;;20.65;59.82;100714.09;7391694;19;1838;-59
2023/11/27 07:47:40;;;;;;;;;;;;;;;20.21;60.56;100711.09;7393211;19;1925;-58
2023/11/27 07:50:11;;;;;;;;;;;;;;;19.98;61.13;100710.56;7394325;19;1362;-58
2023/11/27 07:52:40;;;;;;;;;;;;;;;20.27;58.54;100715.03;7394571;19;1710;-59
2023/11/27 07:55:08;;;;;;;;;;;;;;;20.81;56.33;100713.47;7394578;19;1323;-60
2023/11/27 07:57:37;;;;;;;;;;;;;;;20.34;56.51;100718.84;7391485;19;1401;-60
2023/11/27 08:00:11;;;;;;;;;;;;;;;20.05;56.65;100721.56;7394280;19;1683;-57
2023/11/27 08:02:39;;;;;;;;;;;;;;;20.02;57.26;100722.72;7391597;19;1844;-59
2023/11/27 08:05:09;;;;;;;;;;;;;;;20.73;55.72;100720.56;7327575;19;12929;-57
2023/11/27 08:07:40;;;;;;;;;;;;;;;21.05;54.96;100715.59;7316381;19;15185;-61
2023/11/27 08:10:10;;;;;;;;;;;;;;;20.94;55.42;100709.56;7395049;19;1403;-61
2023/11/27 08:12:38;;;;;;;;;;;;;;;20.47;56.48;100715.81;7393084;19;1253;-58
2023/11/27 08:15:08;;;;;;;;;;;;;;;20.17;57.59;100703.47;7393147;19;1034;-60
2023/11/27 08:17:36;;;;;;;;;;;;;;;20.26;57.42;100722.25;7390918;19;1464;-60
2023/11/27 08:20:05;;;;;;;;;;;;;;;20.89;56.30;100730.66;7394152;19;1564;-60
2023/11/27 08:22:33;;;;;;;;;;;;;;;21.17;55.55;100716.25;7389694;19;1851;-62
2023/11/27 08:25:04;;;;;;;;;;;;;;;20.66;56.92;100710.41;7389897;19;1401;-62
2023/11/27 08:27:36;;;;;;;;;;;;;;;20.31;57.87;100731.69;7392931;19;1557;-61
2023/11/27 08:30:05;;;;;;;;;;;;;;;20.06;58.47;100729.47;7393772;19;1153;-60
2023/11/27 08:32:33;;;;;;;;;;;;;;;20.66;57.06;100723.84;7392804;19;1526;-60
2023/11/27 08:35:02;;;;;;;;;;;;;;;21.12;56.05;100734.66;7383840;19;1903;-59
2023/11/27 08:37:35;;;;;;;;;;;;;;;21.17;56.16;100723.44;7393453;19;1525;-60
2023/11/27 08:40:07;;;;;;;;;;;;;;;20.63;57.47;100742.97;7392971;19;1249;-60
2023/11/27 08:42:36;;;;;;;;;;;;;;;20.31;58.41;100740.59;7391541;19;1878;-60
2023/11/27 08:45:10;;;;;;;;;;;;;;;20.30;58.52;100724.66;7393642;19;1229;-60
2023/11/27 08:47:39;;;;;;;;;;;;;;;21.00;56.59;100715.19;7392609;19;1509;-66
2023/11/27 08:50:10;;;;;;;;;;;;;;;21.15;56.06;100712.00;7392845;19;1477;-59
2023/11/27 08:52:38;;;;;;;;;;;;;;;20.69;57.36;100722.72;7392062;19;1456;-61
2023/11/27 08:55:09;;;;;;;;;;;;;;;20.37;58.05;100768.72;7390374;19;1497;-61
2023/11/27 08:57:38;;;;;;;;;;;;;;;20.30;58.37;100738.91;7389025;19;1401;-61
2023/11/27 09:00:11;;;;;;;;;;;;;;;20.87;57.30;100722.78;7391162;19;1226;-60
2023/11/27 09:02:39;;;;;;;;;;;;;;;21.17;56.23;100763.78;7391237;19;1842;-62
2023/11/27 09:05:08;;;;;;;;;;;;;;;20.78;57.24;100737.09;7391902;19;1258;-60
2023/11/27 09:07:37;;;;;;;;;;;;;;;20.41;58.55;100754.00;7390848;19;1409;-60
2023/11/27 09:10:06;;;;;;;;;;;;;;;20.27;58.42;100742.75;7393034;19;1537;-62
2023/11/27 09:12:37;;;;;;;;;;;;;;;20.79;57.49;100736.09;7391600;19;1508;-58
2023/11/27 09:15:06;;;;;;;;;;;;;;;21.11;56.77;100724.03;7389479;19;1500;-61
2023/11/27 09:17:37;;;;;;;;;;;;;;;20.64;57.78;100730.38;7391173;19;1631;-61
2023/11/27 09:20:09;;;;;;;;;;;;;;;20.32;58.65;100723.50;7391657;19;1592;-60
2023/11/27 09:22:38;;;;;;;;;;;;;;;20.29;58.84;100733.69;7389491;19;1865;-60
2023/11/27 09:25:09;;;;;;;;;;;;;;;20.99;56.85;100713.50;7388696;19;1565;-60
2023/11/27 09:27:39;;;;;;;;;;;;;;;21.20;56.85;100717.78;7392225;19;1468;-61
2023/11/27 09:30:09;;;;;;;;;;;;;;;20.64;57.95;100733.06;7390537;19;1694;-61
2023/11/27 09:32:38;;;;;;;;;;;;;;;20.37;58.57;100706.94;7387576;19;1728;-63
2023/11/27 09:35:08;;;;;;;;;;;;;;;20.57;58.04;100724.72;7378824;19;1784;-64
2023/11/27 09:37:37;;;;;;;;;;;;;;;21.22;56.28;100721.16;7392480;19;1532;-64
2023/11/27 09:40:08;;;;;;;;;;;;;;;21.42;55.70;100717.31;7391371;19;1719;-62
2023/11/27 09:42:39;;;;;;;;;;;;;;;21.30;55.94;100729.31;7389500;19;1850;-63
2023/11/27 09:45:11;;;;;;;;;;;;;;;20.79;57.35;100728.03;7392004;19;1405;-62
2023/11/27 09:47:37;;;;;;;;;;;;;;;20.45;58.23;100723.16;7390782;19;1578;-60
2023/11/27 09:50:08;;;;;;;;;;;;;;;20.29;57.52;100723.78;7391336;19;1395;-67
2023/11/27 09:52:43;;;;;;;;;;;;;;;20.93;57.17;100714.13;7391018;19;1374;-61
2023/11/27 09:55:12;;;;;;;;;;;;;;;21.21;56.48;100722.16;7391104;19;1672;-64
2023/11/27 09:57:43;;;;;;;;;;;;;;;20.70;57.80;100719.03;7389821;19;1453;-61
2023/11/27 10:00:17;;;;;;;;;;;;;;;20.39;58.91;100716.56;7388934;19;1330;-67
2023/11/27 10:02:47;;;;;;;;;;;;;;;20.56;58.32;100719.47;7384297;19;1851;-59
2023/11/27 10:05:16;;;;;;;;;;;;;;;21.07;57.22;100712.78;7390097;19;1529;-64
2023/11/27 10:07:46;;;;;;;;;;;;;;;21.11;57.15;100713.28;7389823;19;1473;-59
2023/11/27 10:10:16;;;;;;;;;;;;;;;20.69;58.26;100697.66;7391395;19;1331;-63
2023/11/27 10:12:46;;;;;;;;;;;;;;;20.47;59.11;100705.06;7389505;19;1512;-60
2023/11/27 10:15:20;;;;;;;;;;;;;;;20.67;58.71;100700.50;7390616;19;1016;-62
2023/11/27 10:17:49;;;;;;;;;;;;;;;21.25;56.86;100697.50;7387005;19;1798;-59
2023/11/27 10:20:18;;;;;;;;;;;;;;;20.92;57.94;100704.34;7388973;19;1417;-61
2023/11/27 10:22:46;;;;;;;;;;;;;;;20.55;58.50;100699.84;7386957;19;1899;-60
2023/11/27 10:25:16;;;;;;;;;;;;;;;20.38;59.60;100700.59;7387861;19;1684;-61
2023/11/27 10:27:45;;;;;;;;;;;;;;;20.59;58.96;100687.81;7390192;19;1487;-62
2023/11/27 10:30:24;;;;;;;;;;;;;;;20.83;58.71;100687.28;7390054;19;1814;-64
2023/11/27 10:32:53;;;;;;;;;;;;;;;20.56;58.85;100693.44;7389195;19;1409;-60
2023/11/27 10:35:24;;;;;;;;;;;;;;;20.28;59.29;100679.13;7375349;19;1351;-59
2023/11/27 10:37:54;;;;;;;;;;;;;;;20.45;59.04;100685.56;7389522;19;1462;-58
2023/11/27 10:40:26;;;;;;;;;;;;;;;21.09;57.47;100683.00;7389270;19;1445;-60
2023/11/27 10:42:58;;;;;;;;;;;;;;;21.13;57.18;100679.91;7389985;19;1845;-60
2023/11/27 10:45:30;;;;;;;;;;;;;;;20.70;58.00;100688.63;7390029;19;983;-60
2023/11/27 10:47:58;;;;;;;;;;;;;;;20.40;58.93;100661.00;7384337;19;1759;-65
2023/11/27 10:50:27;;;;;;;;;;;;;;;20.36;59.72;100656.91;7387979;19;1901;-61
2023/11/27 10:52:56;;;;;;;;;;;;;;;20.99;58.19;100657.06;7388332;19;1583;-59
2023/11/27 10:55:25;;;;;;;;;;;;;;;21.31;57.30;100661.09;7389146;19;1057;-65
2023/11/27 10:57:57;;;;;;;;;;;;;;;21.29;56.01;100662.22;7385227;19;1971;-64
2023/11/27 11:00:32;;;;;;;;;;;;;;;21.17;57.26;100653.53;7388788;19;1859;-64
2023/11/27 11:03:06;;;;;;;;;;;;;;;20.76;57.87;100677.28;7386593;19;1852;-64
2023/11/27 11:05:38;;;;;;;;;;;;;;;20.42;58.71;100659.84;7389074;19;1719;-64
2023/11/27 11:08:07;;;;;;;;;;;;;;;20.43;58.74;100687.56;7388030;19;1461;-63
2023/11/27 11:10:38;;;;;;;;;;;;;;;20.99;57.25;100667.81;7387358;19;1750;-64
2023/11/27 11:13:08;;;;;;;;;;;;;;;21.38;56.51;100675.59;7387419;19;1369;-64
2023/11/27 11:15:39;;;;;;;;;;;;;;;21.31;56.67;100685.28;7384547;19;1437;-64
2023/11/27 11:18:14;;;;;;;;;;;;;;;20.83;57.84;100686.41;7387067;19;1604;-65
2023/11/27 11:20:54;;;;;;;;;;;;;;;20.55;58.86;100686.41;7393080;19;1564;-65
2023/11/27 11:23:27;;;;;;;;;;;;;;;20.36;59.36;100691.84;7392157;19;1846;-66
2023/11/27 11:26:21;;;;;;;;;;;;;;;20.87;58.28;100693.22;7393820;19;1785;-65
2023/11/27 11:28:51;;;;;;;;;;;;;;;21.08;57.76;100673.28;7396558;19;1485;-68
2023/11/27 11:31:24;;;;;;;;;;;;;;;20.70;58.92;100689.47;7392661;19;1429;-67
2023/11/27 11:33:54;;;;;;;;;;;;;;;20.54;59.68;100687.38;7377093;19;1569;-69
2023/11/27 11:36:33;;;;;;;;;;;;;;;20.35;60.24;100671.31;7393214;19;1137;-66
2023/11/27 11:39:02;;;;;;;;;;;;;;;20.71;59.76;100663.44;7394977;19;1513;-65
2023/11/27 11:41:31;;;;;;;;;;;;;;;21.24;58.03;100674.28;7391459;19;1568;-64
2023/11/27 11:44:00;;;;;;;;;;;;;;;20.92;59.77;100679.31;7392408;19;1868;-63
2023/11/27 11:46:29;;;;;;;;;;;;;;;20.65;60.43;100697.09;7391532;19;1838;-60
2023/11/27 11:49:02;;;;;;;;;;;;;;;20.50;60.40;100669.03;7390743;19;1711;-57
2023/11/27 11:51:32;;;;;;;;;;;;;;;20.56;60.66;100669.28;7394888;19;1341;-61
2023/11/27 11:54:00;;;;;;;;;;;;;;;21.00;59.73;100658.72;7392553;19;2602;-62
2023/11/27 11:56:29;;;;;;;;;;;;;;;20.84;60.03;100648.66;7394211;19;1576;-64
2023/11/27 11:59:01;;;;;;;;;;;;;;;20.58;60.84;100669.13;7396649;19;997;-64
2023/11/27 12:01:32;;;;;;;;;;;;;;;20.33;61.55;100649.97;7396496;19;948;-65
2023/11/27 12:04:08;;;;;;;;;;;;;;;20.31;61.70;100667.25;7392941;19;1880;-59
2023/11/27 12:06:40;;;;;;;;;;;;;;;20.92;60.06;100655.97;7392866;19;1454;-68
2023/11/27 12:09:09;;;;;;;;;;;;;;;20.96;59.83;100645.75;7391952;19;1547;-61
2023/11/27 12:11:37;;;;;;;;;;;;;;;20.63;60.09;100651.59;7395702;19;1596;-68
2023/11/27 12:14:14;;;;;;;;;;;;;;;20.33;61.10;100662.56;7392228;19;1358;-61
2023/11/27 12:16:42;;;;;;;;;;;;;;;20.20;61.41;100663.75;7389327;19;1485;-60
2023/11/27 12:19:18;;;;;;;;;;;;;;;20.77;59.74;100649.38;7394719;19;1604;-64
2023/11/27 12:21:47;;;;;;;;;;;;;;;21.19;58.70;100663.16;7395247;19;1113;-62
2023/11/27 12:24:17;;;;;;;;;;;;;;;20.78;59.72;100667.22;7391703;19;1849;-62
2023/11/27 12:26:51;;;;;;;;;;;;;;;20.42;60.47;100653.66;7392636;19;1838;-62
2023/11/27 12:29:19;;;;;;;;;;;;;;;20.24;61.23;100662.47;7390472;19;1778;-62
2023/11/27 12:31:50;;;;;;;;;;;;;;;20.37;60.68;100650.53;7391894;19;1429;-60
2023/11/27 12:34:24;;;;;;;;;;;;;;;20.90;58.05;100662.50;7377872;19;2361;-72
2023/11/27 12:36:53;;;;;;;;;;;;;;;20.75;59.37;100659.44;7393285;19;1427;-69
2023/11/27 12:39:25;;;;;;;;;;;;;;;20.42;60.38;100653.66;7392801;19;1339;-69
2023/11/27 12:42:00;;;;;;;;;;;;;;;20.23;60.80;100650.03;7395576;19;1462;-71
2023/11/27 12:44:31;;;;;;;;;;;;;;;20.36;60.09;100649.69;7391908;19;1846;-64
2023/11/27 12:47:00;;;;;;;;;;;;;;;20.97;58.57;100640.25;7389163;19;2571;-65
2023/11/27 12:49:34;;;;;;;;;;;;;;;21.10;58.19;100652.47;6365300;19;10001292;-62
2023/11/27 12:52:06;;;;;;;;;;;;;;;20.79;59.18;100666.22;7387105;19;1782;-63
2023/11/27 12:54:36;;;;;;;;;;;;;;;20.38;59.87;100663.00;7385279;19;1616;-64
2023/11/27 12:57:06;;;;;;;;;;;;;;;20.26;61.01;100665.00;7386074;19;1872;-57